Time;durP1;ratioP1;P1;durP2;ratioP2;P2;SDS_P1;SDS_P2;PMS_P1;PMS_P2;Temp;Humidity;BMP_temperature;BMP_pressure;BME280_temperature;BME280_humidity;BME280_pressure;Samples;Min_cycle;Max_cycle;Signal;HPM_P1;HPM_P2
2022/12/28 00:00:08;;;;;;;6.40;3.30;;;;;;;-0.52;74.84;98404.24;108057;1266;58926;-65
2022/12/28 00:02:59;;;;;;;3.90;2.80;;;;;;;-0.59;74.84;98410.15;107966;1262;58891;-65
2022/12/28 00:05:28;;;;;;;5.20;3.30;;;;;;;-0.65;74.88;98413.15;108054;1262;70599;-65
2022/12/28 00:07:57;;;;;;;4.50;3.20;;;;;;;-0.73;75.29;98420.42;108009;1265;69697;-65
2022/12/28 00:10:27;;;;;;;7.60;4.00;;;;;;;-0.81;76.05;98424.29;107995;1265;68266;-65
2022/12/28 00:13:16;;;;;;;4.70;3.60;;;;;;;-0.88;76.14;98426.41;107966;1266;58926;-66
2022/12/28 00:15:45;;;;;;;4.40;3.10;;;;;;;-0.93;77.06;98428.54;108027;1266;58889;-65
2022/12/28 00:18:14;;;;;;;5.00;3.40;;;;;;;-1.01;77.45;98430.31;108034;1266;70749;-67
2022/12/28 00:20:43;;;;;;;5.30;3.60;;;;;;;-1.11;77.70;98429.73;108075;1264;69232;-66
2022/12/28 00:23:12;;;;;;;6.20;4.10;;;;;;;-1.24;78.84;98432.94;107965;1262;69956;-66
2022/12/28 00:25:41;;;;;;;8.70;5.10;;;;;;;-1.35;78.62;98434.58;108001;1266;58963;-66
2022/12/28 00:28:10;;;;;;;8.20;4.40;;;;;;;-1.45;79.21;98436.71;108003;1265;58922;-66
2022/12/28 00:30:39;;;;;;;7.20;5.40;;;;;;;-1.53;79.07;98440.21;108024;1263;69991;-66
2022/12/28 00:33:08;;;;;;;5.60;4.20;;;;;;;-1.61;79.43;98441.46;108016;1266;68415;-66
2022/12/28 00:35:37;;;;;;;7.00;4.50;;;;;;;-1.68;79.46;98448.02;108022;1266;69207;-66
2022/12/28 00:38:05;;;;;;;6.80;4.80;;;;;;;-1.76;80.05;98453.89;107974;1266;59073;-66
2022/12/28 00:40:34;;;;;;;8.30;4.40;;;;;;;-1.84;81.21;98454.10;108039;1262;58965;-66
2022/12/28 00:43:03;;;;;;;6.60;4.40;;;;;;;-1.91;80.47;98459.11;107963;1265;71303;-66
2022/12/28 00:45:32;;;;;;;5.00;3.70;;;;;;;-1.99;80.60;98459.67;108016;1265;68559;-66
2022/12/28 00:48:02;;;;;;;8.50;4.60;;;;;;;-2.06;80.94;98462.79;107929;1263;69912;-66
2022/12/28 00:50:31;;;;;;;5.10;3.90;;;;;;;-2.13;79.84;98467.60;108019;1259;58931;-66
2022/12/28 00:53:01;;;;;;;6.30;4.50;;;;;;;-2.19;79.89;98467.13;108047;1265;58885;-66
2022/12/28 00:55:31;;;;;;;5.60;4.50;;;;;;;-2.24;80.05;98469.54;108050;1266;69880;-66
2022/12/28 00:58:02;;;;;;;6.50;4.50;;;;;;;-2.31;80.25;98473.16;108009;1263;69406;-66
2022/12/28 01:00:31;;;;;;;6.40;4.50;;;;;;;-2.37;81.18;98477.98;108046;1264;69235;-66
2022/12/28 01:03:02;;;;;;;8.10;4.60;;;;;;;-2.43;83.02;98475.94;107970;1263;58882;-66
2022/12/28 01:05:31;;;;;;;7.90;5.00;;;;;;;-2.50;84.49;98469.49;108004;1266;58914;-66
2022/12/28 01:08:01;;;;;;;9.00;6.50;;;;;;;-2.59;86.83;98472.26;108033;1263;70614;-66
2022/12/28 01:10:30;;;;;;;8.60;6.30;;;;;;;-2.68;86.12;98469.89;108020;1263;68483;-66
2022/12/28 01:12:59;;;;;;;12.30;6.80;;;;;;;-2.76;86.43;98474.00;107987;1265;69866;-66
2022/12/28 01:15:28;;;;;;;10.30;6.80;;;;;;;-2.86;86.26;98474.54;108002;1266;58891;-66
2022/12/28 01:17:57;;;;;;;10.90;6.30;;;;;;;-2.91;85.38;98475.41;107993;1262;58948;-66
2022/12/28 01:20:27;;;;;;;9.00;5.80;;;;;;;-2.93;84.61;98473.20;108000;1264;69843;-66
2022/12/28 01:22:56;;;;;;;8.90;5.50;;;;;;;-2.95;84.09;98473.71;107982;1267;68575;-66
2022/12/28 01:25:25;;;;;;;10.30;7.10;;;;;;;-2.96;83.70;98481.21;107978;1264;69220;-66
2022/12/28 01:27:54;;;;;;;9.40;6.90;;;;;;;-2.99;86.19;98482.08;108005;1265;58904;-66
2022/12/28 01:30:25;;;;;;;10.90;7.20;;;;;;;-3.06;84.56;98481.24;108039;1262;58923;-66
2022/12/28 01:32:58;;;;;;;10.50;7.30;;;;;;;-3.09;84.28;98480.90;107994;1263;70660;-66
2022/12/28 01:35:28;;;;;;;8.10;5.90;;;;;;;-3.14;85.08;98485.35;108051;1262;69188;-65
2022/12/28 01:37:57;;;;;;;11.80;6.60;;;;;;;-3.20;85.78;98493.88;108018;1256;69750;-65
2022/12/28 01:40:26;;;;;;;12.50;7.60;;;;;;;-3.25;88.22;98497.64;107946;1267;58954;-65
2022/12/28 01:42:56;;;;;;;9.20;6.50;;;;;;;-3.30;88.21;98501.04;107949;1262;58890;-66
2022/12/28 01:45:27;;;;;;;7.80;5.40;;;;;;;-3.35;88.18;98499.68;107789;1266;69611;-65
2022/12/28 01:47:56;;;;;;;10.30;5.60;;;;;;;-3.41;87.57;98495.75;107992;1263;69140;-65
2022/12/28 01:50:28;;;;;;;8.10;6.00;;;;;;;-3.46;89.72;98499.69;107986;1259;68595;-65
2022/12/28 01:53:03;;;;;;;10.30;6.10;;;;;;;-3.51;90.54;98497.63;108012;1266;58969;-65
2022/12/28 01:55:38;;;;;;;7.40;5.20;;;;;;;-3.57;89.06;98493.53;108020;1265;58891;-65
2022/12/28 01:58:14;;;;;;;11.00;6.30;;;;;;;-3.59;90.52;98496.10;108020;1265;69975;-65
2022/12/28 02:00:43;;;;;;;6.90;5.10;;;;;;;-3.61;90.69;98498.64;107967;1265;69064;-65
2022/12/28 02:03:33;;;;;;;12.00;6.70;;;;;;;-3.63;90.56;98496.77;107942;1263;69138;-65
2022/12/28 02:06:08;;;;;;;10.10;6.10;;;;;;;-3.65;89.57;98492.17;107984;1265;58957;-65
2022/12/28 02:08:53;;;;;;;8.90;5.90;;;;;;;-3.67;89.26;98489.27;108036;1266;58875;-65
2022/12/28 02:11:23;;;;;;;9.50;5.60;;;;;;;-3.70;89.92;98489.09;107948;1265;70536;-65
2022/12/28 02:13:54;;;;;;;10.00;5.80;;;;;;;-3.73;89.04;98486.37;108010;1264;69243;-65
2022/12/28 02:16:25;;;;;;;10.20;6.30;;;;;;;-3.75;88.37;98485.34;107964;1265;68841;-65
2022/12/28 02:18:55;;;;;;;9.20;5.60;;;;;;;-3.76;88.30;98485.50;108041;1265;58961;-65
2022/12/28 02:22:07;;;;;;;7.00;5.50;;;;;;;-3.78;90.33;98483.64;107977;1262;58943;-65
2022/12/28 02:24:45;;;;;;;7.00;4.70;;;;;;;-3.83;89.75;98480.56;107880;1264;71223;-65
2022/12/28 02:27:28;;;;;;;9.90;6.00;;;;;;;-3.87;89.29;98482.77;107977;1264;68390;-65
2022/12/28 02:30:10;;;;;;;9.70;6.20;;;;;;;-3.90;89.32;98484.80;108040;1261;69323;-65
2022/12/28 02:32:59;;;;;;;7.30;4.40;;;;;;;-3.92;91.91;98479.69;107997;1267;58993;-65
2022/12/28 02:35:37;;;;;;;10.90;7.00;;;;;;;-3.96;92.30;98482.58;108015;1264;58893;-65
2022/12/28 02:38:14;;;;;;;9.70;6.70;;;;;;;-3.99;92.67;98484.95;107979;1266;70579;-65
2022/12/28 02:40:48;;;;;;;7.70;6.10;;;;;;;-4.01;93.71;98485.96;107992;1265;69281;-65
2022/12/28 02:43:18;;;;;;;10.00;6.00;;;;;;;-4.06;93.06;98484.77;107930;1265;69901;-66
2022/12/28 02:51:47;;;;;;;8.70;4.90;;;;;;;-4.14;92.56;98492.58;107983;1265;69791;-65
2022/12/28 02:57:44;;;;;;;7.50;4.90;;;;;;;-4.20;91.04;98490.51;107939;1266;69538;-65
2022/12/28 03:00:23;;;;;;;9.40;6.20;;;;;;;-4.21;92.07;98488.13;107955;1262;59255;-65
2022/12/28 03:03:02;;;;;;;8.20;5.30;;;;;;;-4.20;93.14;98487.98;107951;1265;58907;-65
2022/12/28 03:09:09;;;;;;;9.60;6.50;;;;;;;-4.23;93.53;98493.40;107978;1256;68504;-65
2022/12/28 03:11:47;;;;;;;9.40;6.10;;;;;;;-4.27;93.18;98491.35;107987;1266;69305;-65
2022/12/28 03:14:28;;;;;;;12.20;6.70;;;;;;;-4.32;92.47;98493.03;107943;1267;58930;-65
2022/12/28 03:31:24;;;;;;;10.50;6.70;;;;;;;-4.42;91.65;98503.55;107991;1266;58891;-65
2022/12/28 03:34:08;;;;;;;8.80;5.60;;;;;;;-4.40;91.22;98502.35;107956;1263;71047;-65
2022/12/28 03:36:59;;;;;;;8.40;6.00;;;;;;;-4.40;92.04;98503.54;107987;1262;69839;-65
2022/12/28 03:39:35;;;;;;;10.80;6.00;;;;;;;-4.42;93.98;98503.21;107968;1263;69893;-65
2022/12/28 03:45:35;;;;;;;11.20;7.00;;;;;;;-4.43;92.95;98506.62;107972;1262;58906;-65
2022/12/28 03:48:16;;;;;;;7.90;5.60;;;;;;;-4.43;91.98;98510.52;107942;1265;71099;-65
2022/12/28 03:50:48;;;;;;;11.00;7.10;;;;;;;-4.40;92.57;98511.39;107984;1264;69602;-65
2022/12/28 03:53:23;;;;;;;13.00;6.40;;;;;;;-4.34;92.88;98511.23;107953;1266;69809;-65
2022/12/28 03:56:06;;;;;;;13.40;6.40;;;;;;;-4.27;92.75;98513.64;107932;1264;58914;-65
2022/12/28 03:58:36;;;;;;;9.90;6.10;;;;;;;-4.23;93.12;98515.53;107983;1263;58989;-65
2022/12/28 04:01:08;;;;;;;8.10;5.70;;;;;;;-4.23;92.82;98513.32;107989;1264;69819;-65
2022/12/28 04:03:40;;;;;;;9.60;6.00;;;;;;;-4.26;92.58;98514.67;107931;1266;68475;-65
2022/12/28 04:06:19;;;;;;;9.10;5.60;;;;;;;-4.29;93.04;98518.57;107951;1263;69126;-65
2022/12/28 04:08:48;;;;;;;10.40;6.80;;;;;;;-4.33;93.00;98520.09;107967;1261;59296;-65
2022/12/28 04:11:19;;;;;;;12.00;7.00;;;;;;;-4.35;92.65;98522.80;107980;1263;58966;-65
2022/12/28 04:13:52;;;;;;;10.70;6.50;;;;;;;-4.38;92.42;98529.27;107976;1263;70779;-65
2022/12/28 04:16:22;;;;;;;9.40;5.80;;;;;;;-4.43;92.22;98530.42;107949;1263;69227;-65
2022/12/28 04:18:54;;;;;;;10.10;7.00;;;;;;;-4.49;92.69;98536.88;107992;1266;69234;-65
2022/12/28 04:21:24;;;;;;;10.80;7.30;;;;;;;-4.57;94.87;98536.30;107983;1265;58959;-65
2022/12/28 04:23:54;;;;;;;10.00;5.90;;;;;;;-4.67;94.80;98537.62;107981;1262;58936;-66
2022/12/28 04:26:24;;;;;;;11.80;7.60;;;;;;;-4.74;94.74;98537.08;107949;1262;71199;-65
2022/12/28 04:28:56;;;;;;;;;;;;;;;-4.78;95.96;98535.52;107988;1262;69834;-64
2022/12/28 04:31:43;;;;;;;11.10;6.60;;;;;;;-4.83;95.31;98537.70;107948;1262;69803;-65
2022/12/28 04:34:15;;;;;;;8.90;6.20;;;;;;;-4.84;94.91;98541.60;107946;1263;58921;-64
2022/12/28 04:36:52;;;;;;;11.00;7.00;;;;;;;-4.83;96.52;98540.75;107971;1265;58852;-65
2022/12/28 04:39:21;;;;;;;;;;;;;;;-4.83;95.86;98541.77;107956;1262;69835;-65
2022/12/28 04:41:52;;;;;;;11.20;6.80;;;;;;;-4.83;95.56;98542.63;107976;1262;68754;-65
2022/12/28 04:44:21;;;;;;;11.30;7.70;;;;;;;-4.82;95.28;98540.08;107991;1260;68775;-65
2022/12/28 04:46:50;;;;;;;11.70;7.30;;;;;;;-4.83;95.59;98536.51;107954;1265;58889;-65
2022/12/28 04:49:20;;;;;;;13.20;7.50;;;;;;;-4.81;95.54;98538.71;107996;1264;58947;-65
2022/12/28 04:51:50;;;;;;;9.50;6.80;;;;;;;-4.80;94.90;98539.59;107985;1264;70460;-65
2022/12/28 04:54:20;;;;;;;10.10;7.00;;;;;;;-4.79;94.52;98544.52;108002;1262;69828;-64
2022/12/28 04:56:49;;;;;;;10.90;6.50;;;;;;;-4.80;94.43;98548.09;107985;1261;68421;-65
2022/12/28 04:59:18;;;;;;;6.30;5.00;;;;;;;-4.83;94.69;98550.11;107972;1262;58890;-65
2022/12/28 05:01:48;;;;;;;;;;;;;;;-4.86;94.98;98550.59;108010;1260;58884;-65
2022/12/28 05:04:18;;;;;;;10.00;5.00;;;;;;;-4.90;95.80;98552.63;107984;1261;69033;-65
2022/12/28 05:06:47;;;;;;;10.80;6.20;;;;;;;-4.92;95.60;98555.48;107985;1264;69261;-65
2022/12/28 05:09:18;;;;;;;9.10;6.40;;;;;;;-4.92;95.76;98557.02;108001;1266;69316;-66
2022/12/28 05:11:48;;;;;;;;;;;;;;;-4.92;95.58;98561.27;107961;1266;58915;-66
2022/12/28 05:14:18;;;;;;;12.40;7.70;;;;;;;-4.94;95.37;98562.96;107982;1266;58907;-66
2022/12/28 05:16:50;;;;;;;7.70;6.00;;;;;;;-4.94;95.00;98566.55;108118;1260;70479;-65
2022/12/28 05:19:19;;;;;;;12.80;7.80;;;;;;;-4.95;95.02;98570.09;107996;1265;68452;-66
2022/12/28 05:21:49;;;;;;;6.40;5.20;;;;;;;-4.97;94.89;98568.21;108048;1260;69156;-65
2022/12/28 05:24:19;;;;;;;11.10;7.70;;;;;;;-5.00;94.40;98569.88;107979;1262;58970;-65
2022/12/28 05:26:49;;;;;;;10.30;6.30;;;;;;;-5.02;94.28;98568.52;108078;1262;58900;-65
2022/12/28 05:29:18;;;;;;;16.50;11.40;;;;;;;-5.00;94.48;98568.18;108054;1260;70991;-65
2022/12/28 05:31:48;;;;;;;15.10;9.10;;;;;;;-4.98;94.93;98568.71;108057;1260;69065;-65
2022/12/28 05:34:19;;;;;;;17.70;9.80;;;;;;;-4.97;95.17;98569.57;108030;1262;68792;-65
2022/12/28 05:36:49;;;;;;;16.90;10.00;;;;;;;-4.97;95.23;98566.00;107997;1260;58882;-65
2022/12/28 05:39:18;;;;;;;14.50;9.60;;;;;;;-4.95;95.54;98566.34;108038;1262;58951;-65
2022/12/28 05:41:47;;;;;;;13.30;7.70;;;;;;;-4.97;95.53;98568.20;108051;1262;69677;-65
2022/12/28 05:44:16;;;;;;;8.60;6.00;;;;;;;-4.99;95.99;98567.01;108023;1265;69779;-65
2022/12/28 05:46:46;;;;;;;10.20;6.90;;;;;;;-4.98;95.30;98570.25;107993;1262;69968;-65
2022/12/28 05:49:15;;;;;;;16.40;9.80;;;;;;;-4.96;96.41;98569.05;107960;1265;58904;-65
2022/12/28 05:51:44;;;;;;;13.90;10.00;;;;;;;-5.01;95.82;98568.02;107971;1264;58965;-65
2022/12/28 05:54:14;;;;;;;11.00;7.00;;;;;;;-5.05;95.68;98567.98;108009;1266;71038;-66
2022/12/28 05:56:43;;;;;;;9.70;7.10;;;;;;;-5.07;96.78;98566.27;108055;1263;69400;-65
2022/12/28 05:59:12;;;;;;;9.10;6.90;;;;;;;-5.09;96.91;98563.70;108033;1266;68777;-65
2022/12/28 06:01:43;;;;;;;8.90;5.60;;;;;;;-5.13;96.66;98561.63;108001;1266;58969;-65
2022/12/28 06:04:16;;;;;;;12.30;8.10;;;;;;;-5.14;95.76;98565.70;107954;1266;58910;-65
2022/12/28 06:06:47;;;;;;;11.50;7.90;;;;;;;-5.06;94.81;98564.23;108017;1265;70424;-65
2022/12/28 06:09:16;;;;;;;13.50;8.80;;;;;;;-4.97;94.88;98566.34;107989;1262;69074;-65
2022/12/28 06:11:46;;;;;;;14.30;9.80;;;;;;;-4.91;94.85;98569.10;107976;1264;69302;-65
2022/12/28 06:14:15;;;;;;;19.60;12.50;;;;;;;-4.89;94.63;98573.36;108013;1265;58871;-66
2022/12/28 06:16:44;;;;;;;26.70;15.80;;;;;;;-4.91;94.60;98572.50;107962;1266;58888;-65
2022/12/28 06:19:14;;;;;;;30.20;18.20;;;;;;;-4.93;94.82;98572.49;107972;1262;70657;-65
2022/12/28 06:21:43;;;;;;;33.50;18.60;;;;;;;-4.96;96.43;98581.48;107979;1264;69159;-65
2022/12/28 06:24:12;;;;;;;25.40;16.80;;;;;;;-5.00;97.80;98583.66;107999;1264;69871;-65
2022/12/28 06:26:41;;;;;;;24.50;14.80;;;;;;;-5.04;97.14;98582.95;108034;1266;59263;-65
2022/12/28 06:29:11;;;;;;;26.30;15.90;;;;;;;-5.07;96.96;98586.00;108023;1262;58895;-66
2022/12/28 06:31:45;;;;;;;16.60;11.60;;;;;;;-5.08;97.39;98587.51;107964;1262;70428;-65
2022/12/28 06:34:14;;;;;;;20.20;13.40;;;;;;;-5.08;97.69;98587.49;108074;1262;69365;-66
2022/12/28 06:36:45;;;;;;;22.10;13.80;;;;;;;-5.09;98.03;98584.94;108033;1266;69238;-67
2022/12/28 06:39:14;;;;;;;18.30;13.80;;;;;;;-5.08;98.65;98584.45;108011;1266;58867;-66
2022/12/28 06:41:43;;;;;;;17.50;13.50;;;;;;;-5.10;98.54;98583.40;108045;1266;58910;-65
2022/12/28 06:44:12;;;;;;;19.00;13.30;;;;;;;-5.10;98.40;98583.75;107979;1262;70833;-65
2022/12/28 06:46:41;;;;;;;16.50;12.30;;;;;;;-5.09;98.91;98584.42;107997;1261;69653;-66
2022/12/28 06:49:10;;;;;;;14.80;10.90;;;;;;;-5.07;98.64;98585.13;107978;1261;69858;-65
2022/12/28 06:51:40;;;;;;;13.40;10.20;;;;;;;-5.02;98.65;98581.43;108009;1264;59297;-66
2022/12/28 06:54:10;;;;;;;17.30;11.40;;;;;;;-4.97;98.68;98580.96;107984;1266;58883;-65
2022/12/28 06:56:39;;;;;;;22.20;13.60;;;;;;;-4.89;99.81;98582.55;108027;1266;69605;-65
2022/12/28 06:59:08;;;;;;;15.50;11.40;;;;;;;-4.79;99.86;98586.86;107985;1262;68476;-66
2022/12/28 07:01:39;;;;;;;17.40;11.90;;;;;;;-4.69;99.92;98586.61;108073;1266;69255;-65
2022/12/28 07:04:09;;;;;;;14.80;10.10;;;;;;;-4.54;100.00;98585.33;108016;1264;59384;-66
2022/12/28 07:06:42;;;;;;;17.40;11.30;;;;;;;-4.32;100.00;98584.61;108051;1259;58941;-65
2022/12/28 07:09:14;;;;;;;15.60;10.40;;;;;;;-3.80;100.00;98585.15;108028;1265;71222;-65
2022/12/28 07:11:44;;;;;;;14.30;9.60;;;;;;;-3.16;100.00;98586.28;107990;1263;69802;-65
2022/12/28 07:14:13;;;;;;;;;;;;;;;-2.47;98.49;98584.70;108050;1262;69366;-66
2022/12/28 07:16:41;;;;;;;30.30;20.20;;;;;;;-1.83;95.81;98582.45;108017;1262;58931;-66
2022/12/28 07:19:10;;;;;;;36.30;23.50;;;;;;;-1.24;95.29;98577.30;107980;1262;58880;-65
2022/12/28 07:21:39;;;;;;;42.90;29.60;;;;;;;-0.71;94.53;98579.79;107961;1262;71045;-65
2022/12/28 07:24:08;;;;;;;34.10;23.30;;;;;;;-0.18;83.28;98585.77;108035;1266;67604;-65
2022/12/28 07:26:37;;;;;;;34.30;23.00;;;;;;;0.37;79.57;98585.60;108031;1266;69089;-66
2022/12/28 07:29:07;;;;;;;30.30;22.70;;;;;;;0.87;75.85;98582.30;108043;1265;58908;-66
2022/12/28 07:31:37;;;;;;;;;;;;;;;1.24;73.67;98577.77;108031;1264;58896;-65
2022/12/28 07:34:14;;;;;;;27.60;20.80;;;;;;;1.62;72.29;98568.86;108078;1256;71238;-66
2022/12/28 07:36:43;;;;;;;28.90;21.00;;;;;;;1.96;70.58;98570.97;108020;1266;68161;-66
2022/12/28 07:39:12;;;;;;;29.60;21.10;;;;;;;2.33;69.36;98570.36;108060;1264;69896;-65
2022/12/28 07:41:41;;;;;;;27.40;23.20;;;;;;;2.54;67.79;98556.84;108009;1262;58955;-65
2022/12/28 07:44:12;;;;;;;42.80;35.80;;;;;;;3.22;66.12;98550.92;108010;1266;58963;-66
2022/12/28 07:46:41;;;;;;;43.50;35.40;;;;;;;3.31;64.39;98554.66;108068;1262;70553;-65
2022/12/28 07:49:10;;;;;;;45.00;37.40;;;;;;;3.60;63.74;98554.73;108017;1264;69876;-65
2022/12/28 07:51:38;;;;;;;57.10;40.90;;;;;;;3.86;62.85;98562.34;107994;1266;70002;-65
2022/12/28 07:54:07;;;;;;;51.00;36.10;;;;;;;4.21;62.10;98561.17;108017;1265;58905;-65
2022/12/28 07:56:36;;;;;;;48.10;32.60;;;;;;;4.16;62.12;98549.75;108051;1264;58932;-66
2022/12/28 07:59:05;;;;;;;45.40;34.60;;;;;;;4.73;60.61;98552.54;108034;1261;70088;-66
2022/12/28 08:01:35;;;;;;;53.20;40.00;;;;;;;4.68;60.15;98553.89;107976;1262;69805;-65
2022/12/28 08:04:08;;;;;;;51.90;44.00;;;;;;;5.22;58.85;98545.27;107947;1265;69599;-65
2022/12/28 08:06:39;;;;;;;50.30;39.10;;;;;;;5.69;57.34;98538.98;107975;1262;58940;-66
2022/12/28 08:09:10;;;;;;;45.10;34.80;;;;;;;6.06;57.26;98545.66;107989;1266;58894;-67
2022/12/28 08:11:43;;;;;;;34.00;27.80;;;;;;;5.96;56.11;98546.54;108028;1266;70515;-66
2022/12/28 08:14:12;;;;;;;35.70;27.70;;;;;;;5.55;57.27;98552.11;108205;1266;68458;-66
2022/12/28 08:16:43;;;;;;;28.90;24.20;;;;;;;6.17;56.15;98550.60;108118;1260;69583;-67
2022/12/28 08:19:12;;;;;;;36.70;29.60;;;;;;;6.59;55.31;98555.95;107982;1266;58886;-66
2022/12/28 08:21:43;;;;;;;36.60;28.60;;;;;;;6.70;54.72;98556.73;108049;1264;58915;-66
2022/12/28 08:24:17;;;;;;;31.00;26.20;;;;;;;6.15;55.55;98560.19;107999;1267;69967;-67
2022/12/28 08:26:47;;;;;;;28.30;23.70;;;;;;;6.30;55.63;98558.09;108011;1260;69682;-66
2022/12/28 08:29:21;;;;;;;28.70;23.50;;;;;;;6.50;54.49;98552.81;107978;1266;69905;-67
2022/12/28 08:31:49;;;;;;;26.70;22.20;;;;;;;6.96;54.26;98554.13;108012;1266;58859;-66
2022/12/28 08:34:25;;;;;;;24.50;19.50;;;;;;;7.01;53.67;98556.71;107951;1265;58932;-66
2022/12/28 08:36:55;;;;;;;24.80;17.50;;;;;;;7.78;52.09;98554.16;107995;1262;69590;-66
2022/12/28 08:39:24;;;;;;;18.10;15.10;;;;;;;7.86;51.81;98560.27;108010;1267;69838;-65
2022/12/28 08:41:52;;;;;;;16.90;13.80;;;;;;;7.88;51.38;98554.27;107997;1262;69412;-65
2022/12/28 08:44:23;;;;;;;18.50;13.30;;;;;;;8.47;49.97;98549.75;108014;1265;58959;-66
2022/12/28 08:46:54;;;;;;;16.30;12.70;;;;;;;9.27;48.89;98544.73;107991;1264;58848;-66
2022/12/28 08:49:23;;;;;;;11.60;9.70;;;;;;;9.77;48.42;98538.88;108033;1261;71531;-67
2022/12/28 08:51:52;;;;;;;11.80;8.40;;;;;;;9.95;47.91;98534.83;108020;1264;68688;-66
2022/12/28 08:54:21;;;;;;;7.20;5.80;;;;;;;10.13;45.82;98528.25;107961;1262;68791;-66
2022/12/28 08:56:52;;;;;;;9.70;6.30;;;;;;;10.90;46.90;98530.15;108067;1264;58873;-66
2022/12/28 08:59:21;;;;;;;10.50;6.70;;;;;;;11.46;43.99;98525.71;107690;1256;460418;-67
2022/12/28 09:01:50;;;;;;;8.20;5.70;;;;;;;11.68;42.34;98534.21;107961;1266;70580;-68
2022/12/28 09:04:20;;;;;;;7.30;4.80;;;;;;;10.32;42.28;98537.39;108043;1264;69817;-68
2022/12/28 09:06:49;;;;;;;7.50;5.10;;;;;;;10.03;42.35;98539.08;107996;1259;68497;-66
2022/12/28 09:09:19;;;;;;;6.70;5.00;;;;;;;9.65;43.29;98541.73;107993;1265;58978;-66
2022/12/28 09:11:48;;;;;;;8.20;5.30;;;;;;;10.18;43.64;98538.14;107987;1266;58936;-66
2022/12/28 09:14:18;;;;;;;6.10;5.00;;;;;;;9.97;42.89;98537.46;108029;1265;71185;-66
2022/12/28 09:16:52;;;;;;;5.90;4.70;;;;;;;10.56;41.89;98541.83;107992;1264;69668;-69
2022/12/28 09:19:22;;;;;;;5.90;4.60;;;;;;;10.34;41.61;98542.30;107985;1262;69908;-66
2022/12/28 09:21:54;;;;;;;7.10;4.70;;;;;;;10.56;41.64;98539.95;107993;1259;59362;-67
2022/12/28 09:24:23;;;;;;;7.80;5.40;;;;;;;10.98;40.95;98538.64;108028;1266;58851;-67
2022/12/28 09:26:53;;;;;;;6.90;5.00;;;;;;;11.71;39.06;98525.83;108082;1264;71082;-67
2022/12/28 09:29:22;;;;;;;6.70;5.70;;;;;;;11.73;39.56;98519.03;108048;1266;69835;-67
2022/12/28 09:31:51;;;;;;;7.60;5.10;;;;;;;12.88;39.62;98514.36;108044;1266;68366;-67
2022/12/28 09:34:19;;;;;;;10.20;5.80;;;;;;;13.15;36.88;98509.86;108061;1264;58953;-67
2022/12/28 09:37:07;;;;;;;7.70;6.20;;;;;;;13.33;36.41;98515.30;108053;1259;58858;-67
2022/12/28 09:39:36;;;;;;;6.70;5.00;;;;;;;13.53;36.59;98515.73;107986;1264;70294;-66
2022/12/28 09:42:23;;;;;;;6.10;4.30;;;;;;;13.74;36.69;98510.25;108052;1264;68630;-66
2022/12/28 09:45:10;;;;;;;6.10;4.20;;;;;;;13.92;33.88;98509.02;108051;1264;69902;-67
2022/12/28 09:47:47;;;;;;;6.00;4.40;;;;;;;13.95;34.08;98514.24;108025;1266;58960;-67
2022/12/28 09:50:15;;;;;;;5.40;4.40;;;;;;;14.14;34.26;98516.78;108042;1266;58918;-67
2022/12/28 09:53:05;;;;;;;5.60;4.40;;;;;;;14.06;34.39;98510.89;107995;1261;71200;-67
2022/12/28 09:55:40;;;;;;;5.80;3.70;;;;;;;15.00;33.55;98507.86;108049;1262;69893;-67
2022/12/28 09:58:15;;;;;;;6.10;4.90;;;;;;;14.67;32.39;98508.86;107981;1264;69920;-67
2022/12/28 10:00:50;;;;;;;6.00;4.40;;;;;;;15.03;31.84;98502.57;108017;1266;58976;-67
2022/12/28 10:03:36;;;;;;;4.70;3.60;;;;;;;15.54;32.43;98497.34;108030;1266;58889;-68
2022/12/28 10:06:15;;;;;;;4.50;3.20;;;;;;;15.80;31.59;98492.41;107975;1262;70993;-67
2022/12/28 10:08:53;;;;;;;6.10;4.20;;;;;;;15.98;30.57;98489.52;108006;1266;69828;-67
2022/12/28 10:11:42;;;;;;;5.30;3.20;;;;;;;14.92;30.62;98486.65;108034;1266;69736;-68
2022/12/28 10:14:18;;;;;;;5.40;3.30;;;;;;;15.53;29.98;98483.17;107998;1262;58886;-67
2022/12/28 10:16:48;;;;;;;5.50;3.50;;;;;;;15.72;29.62;98479.50;108039;1259;58879;-67
2022/12/28 10:19:21;;;;;;;4.70;3.30;;;;;;;16.07;30.07;98473.71;107984;1260;71255;-67
2022/12/28 10:21:57;;;;;;;5.50;3.00;;;;;;;15.72;29.16;98475.50;107998;1264;69930;-67
2022/12/28 10:24:27;;;;;;;3.80;2.70;;;;;;;15.99;28.51;98478.63;107993;1262;68733;-69
2022/12/28 10:27:04;;;;;;;5.10;2.60;;;;;;;15.48;27.53;98479.14;108061;1261;58952;-68
2022/12/28 10:29:34;;;;;;;3.90;2.50;;;;;;;15.23;28.49;98477.52;108043;1266;58891;-68
2022/12/28 10:32:05;;;;;;;4.50;2.80;;;;;;;14.95;29.44;98483.66;107984;1266;71092;-67
2022/12/28 10:34:35;;;;;;;4.50;2.80;;;;;;;15.58;29.45;98481.36;107986;1265;69824;-67
2022/12/28 10:37:15;;;;;;;3.90;2.60;;;;;;;16.59;28.17;98475.10;108043;1264;69065;-67
2022/12/28 10:39:52;;;;;;;4.40;2.70;;;;;;;16.92;27.72;98467.47;107994;1266;58838;-67
2022/12/28 10:42:27;;;;;;;4.60;2.80;;;;;;;17.01;27.64;98464.50;108012;1262;58818;-67
2022/12/28 10:45:16;;;;;;;5.80;2.80;;;;;;;16.72;28.20;98465.09;108028;1264;70548;-67
2022/12/28 10:47:52;;;;;;;4.70;2.80;;;;;;;16.36;27.71;98463.89;107983;1266;68451;-68
2022/12/28 10:50:39;;;;;;;3.50;2.30;;;;;;;16.04;28.31;98461.19;107979;1266;69997;-68
2022/12/28 10:53:22;;;;;;;5.50;3.30;;;;;;;14.63;29.35;98456.33;108004;1266;58886;-67
2022/12/28 10:56:13;;;;;;;6.20;5.30;;;;;;;13.11;31.73;98451.46;107989;1262;58883;-67
2022/12/28 10:58:47;;;;;;;5.00;3.60;;;;;;;12.05;33.74;98451.64;107951;1266;70564;-67
2022/12/28 11:01:27;;;;;;;4.40;3.30;;;;;;;11.69;34.77;98448.41;107875;1256;70172;-68
2022/12/28 11:04:15;;;;;;;4.90;3.50;;;;;;;11.22;35.81;98440.59;107673;1266;69160;-68
2022/12/28 11:06:55;;;;;;;5.60;3.50;;;;;;;11.14;35.60;98441.25;107753;1266;58979;-66
2022/12/28 11:09:25;;;;;;;5.80;3.30;;;;;;;11.50;35.75;98443.14;108094;1262;58833;-67
2022/12/28 11:12:22;;;;;;;4.70;2.80;;;;;;;11.60;36.13;98435.19;107696;1266;71207;-68
2022/12/28 11:14:53;;;;;;;3.30;2.80;;;;;;;12.46;34.53;98435.27;107932;1266;69047;-68
2022/12/28 11:17:27;;;;;;;6.90;3.40;;;;;;;12.54;33.82;98432.67;107933;1266;68324;-67
2022/12/28 11:20:05;;;;;;;4.40;2.70;;;;;;;12.17;33.58;98439.73;107920;1266;58891;-68
2022/12/28 11:22:34;;;;;;;5.30;3.00;;;;;;;11.19;34.50;98433.77;107878;1261;58842;-68
2022/12/28 11:25:05;;;;;;;4.90;3.50;;;;;;;10.23;35.87;98433.86;107902;1266;71277;-66
2022/12/28 11:27:35;;;;;;;4.20;3.30;;;;;;;10.09;36.42;98429.73;107680;1263;69008;-68
2022/12/28 11:30:06;;;;;;;4.20;2.70;;;;;;;9.96;37.63;98428.02;107688;1266;69172;-69
2022/12/28 11:32:53;;;;;;;6.60;3.80;;;;;;;10.71;37.27;98425.77;107781;1266;58985;-69
2022/12/28 11:35:27;;;;;;;5.40;3.70;;;;;;;10.60;36.38;98426.95;107834;1266;58959;-66
2022/12/28 11:37:58;;;;;;;4.10;2.80;;;;;;;10.98;36.20;98427.17;107923;1266;70234;-66
2022/12/28 11:40:51;;;;;;;4.40;2.60;;;;;;;11.49;36.08;98429.23;107873;1262;68427;-66
2022/12/28 11:43:28;;;;;;;3.70;2.20;;;;;;;11.22;35.38;98428.05;107769;1266;68445;-66
2022/12/28 11:45:57;;;;;;;5.00;2.20;;;;;;;11.54;35.75;98425.57;107692;1266;58930;-67
2022/12/28 11:48:41;;;;;;;2.70;1.90;;;;;;;11.83;36.03;98422.08;107659;1266;58854;-67
2022/12/28 11:51:17;;;;;;;3.60;2.10;;;;;;;12.25;34.34;98422.45;107904;1262;69750;-66
2022/12/28 11:53:46;;;;;;;3.30;2.20;;;;;;;12.27;34.06;98427.70;107808;1266;69841;-67
2022/12/28 11:56:22;;;;;;;4.30;2.80;;;;;;;11.78;34.29;98426.08;107786;1266;69835;-67
2022/12/28 11:58:57;;;;;;;4.20;3.70;;;;;;;10.75;36.18;98420.84;107814;1261;58969;-67
2022/12/28 12:01:28;;;;;;;3.60;2.40;;;;;;;10.92;36.30;98416.04;107986;1265;58905;-66
2022/12/28 12:03:57;;;;;;;3.70;2.40;;;;;;;11.70;34.87;98416.23;107972;1266;69622;-66
2022/12/28 12:06:41;;;;;;;4.50;2.60;;;;;;;12.83;34.36;98407.30;107933;1266;69816;-67
2022/12/28 12:09:26;;;;;;;4.00;2.10;;;;;;;13.73;31.00;98400.30;107938;1262;69075;-66
2022/12/28 12:12:12;;;;;;;2.70;2.10;;;;;;;14.12;30.31;98391.62;107833;1266;58879;-66
2022/12/28 12:14:53;;;;;;;3.80;3.20;;;;;;;14.59;30.49;98389.41;107823;1266;58933;-67
2022/12/28 12:17:46;;;;;;;5.60;3.60;;;;;;;15.06;31.29;98388.25;107943;1266;71027;-66